Time;durP1;ratioP1;P1;durP2;ratioP2;P2;SDS_P1;SDS_P2;PMS_P1;PMS_P2;Temp;Humidity;BMP_temperature;BMP_pressure;BME280_temperature;BME280_humidity;BME280_pressure;Samples;Min_cycle;Max_cycle;Signal;HPM_P1;HPM_P2
2023/11/30 00:00:03;;;;;;;22.88;16.55;;;;;;;;;;6330630;27;20049;-74
2023/11/30 00:03:05;;;;;;;23.80;18.13;;;;;;;;;;6346470;27;20056;-74
2023/11/30 00:06:09;;;;;;;25.60;17.65;;;;;;;;;;6347684;27;20062;-75
2023/11/30 00:09:11;;;;;;;30.90;19.17;;;;;;;;;;6342416;27;20035;-74
2023/11/30 00:12:14;;;;;;;26.10;17.17;;;;;;;;;;6329906;27;20039;-74
2023/11/30 00:15:16;;;;;;;21.85;13.80;;;;;;;;;;6345881;27;20552;-74
2023/11/30 00:18:18;;;;;;;19.83;16.55;;;;;;;;;;6365605;27;20046;-75
2023/11/30 00:21:20;;;;;;;20.23;11.88;;;;;;;;;;6325294;27;20711;-74
2023/11/30 00:24:22;;;;;;;23.08;15.90;;;;;;;;;;6363913;27;20118;-72
2023/11/30 00:27:25;;;;;;;27.83;14.75;;;;;;;;;;6365712;27;20066;-73
2023/11/30 00:30:29;;;;;;;17.92;13.88;;;;;;;;;;6345624;27;20070;-73
2023/11/30 00:33:31;;;;;;;21.15;18.90;;;;;;;;;;6344715;27;20046;-73
2023/11/30 00:36:33;;;;;;;21.48;16.15;;;;;;;;;;6330368;27;20031;-73
2023/11/30 00:39:35;;;;;;;23.23;16.60;;;;;;;;;;6330089;27;20043;-76
2023/11/30 00:42:37;;;;;;;19.85;15.13;;;;;;;;;;6330482;27;20047;-74
2023/11/30 00:45:39;;;;;;;19.35;14.38;;;;;;;;;;6312562;27;20039;-75
2023/11/30 00:48:41;;;;;;;19.38;11.63;;;;;;;;;;6346003;27;20909;-74
2023/11/30 00:51:44;;;;;;;20.73;15.07;;;;;;;;;;6322184;27;20036;-74
2023/11/30 00:54:46;;;;;;;20.73;14.10;;;;;;;;;;6346393;27;20039;-74
2023/11/30 00:57:49;;;;;;;21.30;16.70;;;;;;;;;;6346737;27;20051;-74
2023/11/30 01:00:51;;;;;;;22.70;15.38;;;;;;;;;;6308475;27;20043;-74
2023/11/30 01:03:53;;;;;;;21.63;18.92;;;;;;;;;;6340576;27;20530;-74
2023/11/30 01:06:55;;;;;;;20.10;15.93;;;;;;;;;;6326528;27;20050;-75
2023/11/30 01:09:57;;;;;;;19.80;15.93;;;;;;;;;;6325126;27;20187;-74
2023/11/30 01:12:59;;;;;;;19.83;15.38;;;;;;;;;;6346320;27;20043;-74
2023/11/30 01:16:01;;;;;;;18.23;13.60;;;;;;;;;;6310764;27;20046;-74
2023/11/30 01:19:03;;;;;;;22.38;16.27;;;;;;;;;;6333214;27;20046;-74
2023/11/30 01:22:07;;;;;;;16.55;12.65;;;;;;;;;;6346379;27;20051;-74
2023/11/30 01:25:09;;;;;;;21.50;14.02;;;;;;;;;;6361848;27;20055;-74
2023/11/30 01:28:11;;;;;;;15.65;12.88;;;;;;;;;;6342798;27;20047;-74
2023/11/30 01:31:14;;;;;;;17.70;13.68;;;;;;;;;;6329714;27;20130;-74
2023/11/30 01:34:17;;;;;;;18.40;13.80;;;;;;;;;;6328970;27;20151;-74
2023/11/30 01:37:19;;;;;;;16.35;13.32;;;;;;;;;;6323785;27;20559;-74
2023/11/30 01:40:22;;;;;;;16.73;13.05;;;;;;;;;;6346252;27;20042;-74
2023/11/30 01:43:25;;;;;;;24.17;14.82;;;;;;;;;;6346285;27;20043;-74
2023/11/30 01:46:27;;;;;;;17.00;14.27;;;;;;;;;;6324410;27;20043;-73
2023/11/30 01:49:30;;;;;;;19.45;14.50;;;;;;;;;;6330633;27;20130;-74
2023/11/30 01:52:35;;;;;;;21.73;13.70;;;;;;;;;;6312916;27;20047;-74
2023/11/30 01:55:38;;;;;;;20.38;12.82;;;;;;;;;;6344840;27;20047;-74
2023/11/30 01:58:40;;;;;;;16.30;14.68;;;;;;;;;;6293333;27;20529;-74
2023/11/30 02:01:44;;;;;;;15.85;11.15;;;;;;;;;;6321952;27;20123;-74
2023/11/30 02:04:49;;;;;;;21.73;14.35;;;;;;;;;;6323932;27;20133;-74
2023/11/30 02:07:55;;;;;;;18.40;13.25;;;;;;;;;;6327209;27;20053;-74
2023/11/30 02:10:57;;;;;;;18.50;10.98;;;;;;;;;;6328264;27;20043;-74
2023/11/30 02:13:59;;;;;;;17.77;12.00;;;;;;;;;;6345081;27;20050;-74
2023/11/30 02:17:03;;;;;;;21.40;14.82;;;;;;;;;;6339035;27;20082;-74
2023/11/30 02:20:06;;;;;;;19.67;14.13;;;;;;;;;;6342543;27;20038;-75
2023/11/30 02:23:08;;;;;;;20.27;10.43;;;;;;;;;;6345125;27;20043;-74
2023/11/30 02:26:10;;;;;;;18.45;9.77;;;;;;;;;;6357995;27;20441;-74
2023/11/30 02:29:15;;;;;;;26.40;16.23;;;;;;;;;;6315285;27;20212;-73
2023/11/30 02:32:17;;;;;;;16.42;9.50;;;;;;;;;;6342886;27;20035;-74
2023/11/30 02:35:19;;;;;;;17.55;13.43;;;;;;;;;;6319741;27;20119;-73
2023/11/30 02:38:21;;;;;;;15.00;12.95;;;;;;;;;;6324745;27;20513;-74
2023/11/30 02:41:23;;;;;;;16.67;11.93;;;;;;;;;;6330226;27;20035;-74
2023/11/30 02:44:26;;;;;;;18.63;10.90;;;;;;;;;;6354231;27;20047;-74
2023/11/30 02:47:28;;;;;;;15.32;11.40;;;;;;;;;;6323943;27;20547;-73
2023/11/30 02:50:30;;;;;;;18.35;12.70;;;;;;;;;;6338672;27;20043;-74
2023/11/30 02:53:32;;;;;;;13.40;11.15;;;;;;;;;;6340705;27;20043;-73
2023/11/30 02:56:39;;;;;;;24.17;12.60;;;;;;;;;;6356591;27;20035;-73
2023/11/30 02:59:42;;;;;;;16.67;12.80;;;;;;;;;;6323643;27;20043;-74
2023/11/30 03:02:44;;;;;;;20.25;13.55;;;;;;;;;;6304626;27;20047;-74
2023/11/30 03:05:46;;;;;;;20.95;9.63;;;;;;;;;;6337152;28;20470;-74
2023/11/30 03:08:49;;;;;;;22.10;14.38;;;;;;;;;;6342897;28;20042;-73
2023/11/30 03:11:51;;;;;;;17.10;12.90;;;;;;;;;;6338513;28;20118;-74
2023/11/30 03:14:53;;;;;;;19.00;13.13;;;;;;;;;;6337290;28;20126;-73
2023/11/30 03:17:56;;;;;;;27.38;17.02;;;;;;;;;;6322640;28;20043;-74
2023/11/30 03:21:01;;;;;;;19.35;15.85;;;;;;;;;;6356602;28;20055;-73
2023/11/30 03:24:04;;;;;;;22.40;14.45;;;;;;;;;;6344750;28;20051;-73
2023/11/30 03:27:11;;;;;;;21.58;14.15;;;;;;;;;;6332892;28;20583;-74
2023/11/30 03:30:14;;;;;;;21.05;13.73;;;;;;;;;;6337971;28;20051;-74
2023/11/30 03:33:16;;;;;;;18.92;13.27;;;;;;;;;;6357412;28;20050;-74
2023/11/30 03:36:18;;;;;;;20.50;13.88;;;;;;;;;;6358519;28;20066;-73
2023/11/30 03:39:20;;;;;;;16.67;11.25;;;;;;;;;;6342618;28;20055;-74
2023/11/30 03:42:22;;;;;;;18.55;13.43;;;;;;;;;;6361676;28;20042;-74
2023/11/30 03:45:24;;;;;;;18.83;13.48;;;;;;;;;;6339015;28;20069;-74
2023/11/30 03:48:27;;;;;;;19.70;12.38;;;;;;;;;;6343581;28;20782;-74
2023/11/30 03:51:29;;;;;;;16.40;13.85;;;;;;;;;;6342633;28;20038;-73
2023/11/30 03:54:31;;;;;;;16.95;13.20;;;;;;;;;;6334908;28;20032;-73
2023/11/30 03:57:33;;;;;;;18.25;12.38;;;;;;;;;;6342230;28;20050;-73
2023/11/30 04:00:36;;;;;;;16.02;12.55;;;;;;;;;;6340143;28;20631;-74
2023/11/30 04:03:38;;;;;;;13.90;8.35;;;;;;;;;;6337530;27;20543;-76
2023/11/30 04:06:40;;;;;;;17.25;9.60;;;;;;;;;;6338319;27;20406;-75
2023/11/30 04:09:45;;;;;;;15.35;8.25;;;;;;;;;;6341047;27;20811;-73
2023/11/30 04:12:48;;;;;;;15.05;10.77;;;;;;;;;;6347417;27;20042;-74
2023/11/30 04:15:50;;;;;;;16.40;11.45;;;;;;;;;;6306619;27;20173;-74
2023/11/30 04:18:53;;;;;;;18.25;14.93;;;;;;;;;;6327282;27;20051;-74
2023/11/30 04:21:55;;;;;;;20.73;15.85;;;;;;;;;;6348469;27;20043;-74
2023/11/30 04:24:58;;;;;;;23.65;14.05;;;;;;;;;;6347053;27;20050;-74
2023/11/30 04:28:00;;;;;;;23.95;15.52;;;;;;;;;;6347387;27;20043;-74
2023/11/30 04:31:02;;;;;;;24.65;16.00;;;;;;;;;;6347079;27;20039;-74
2023/11/30 04:34:05;;;;;;;20.48;11.73;;;;;;;;;;6321612;27;20043;-74
2023/11/30 04:37:07;;;;;;;21.27;15.07;;;;;;;;;;6347175;27;20073;-74
2023/11/30 04:40:12;;;;;;;21.02;13.93;;;;;;;;;;6360289;27;20047;-73
2023/11/30 04:43:15;;;;;;;34.22;17.67;;;;;;;;;;6307685;27;20477;-75
2023/11/30 04:46:17;;;;;;;31.17;21.08;;;;;;;;;;6326792;27;20182;-73
2023/11/30 04:49:19;;;;;;;25.45;15.57;;;;;;;;;;6346562;27;20039;-74
2023/11/30 04:52:21;;;;;;;19.52;14.07;;;;;;;;;;6338982;27;20039;-74
2023/11/30 04:55:23;;;;;;;24.67;13.95;;;;;;;;;;6310795;27;20513;-75
2023/11/30 04:58:26;;;;;;;17.58;13.68;;;;;;;;;;6326516;27;20540;-74
2023/11/30 05:01:29;;;;;;;17.05;11.80;;;;;;;;;;6346207;27;20050;-74
2023/11/30 05:04:32;;;;;;;13.63;9.02;;;;;;;;;;6324732;27;20454;-74
2023/11/30 05:07:34;;;;;;;20.48;13.25;;;;;;;;;;6343041;27;20047;-74
2023/11/30 05:10:36;;;;;;;15.02;12.50;;;;;;;;;;6340734;27;20167;-75
2023/11/30 05:13:41;;;;;;;18.98;14.15;;;;;;;;;;6341706;27;20043;-74
2023/11/30 05:16:43;;;;;;;19.27;14.27;;;;;;;;;;6328459;27;20082;-74
2023/11/30 05:19:45;;;;;;;21.02;15.48;;;;;;;;;;6345269;27;20848;-74
2023/11/30 05:22:48;;;;;;;27.20;14.70;;;;;;;;;;6354986;27;20045;-75
2023/11/30 05:25:51;;;;;;;30.33;17.00;;;;;;;;;;6342558;27;20062;-75
2023/11/30 05:28:53;;;;;;;25.95;20.55;;;;;;;;;;6360723;27;20118;-75
2023/11/30 05:31:55;;;;;;;20.75;13.95;;;;;;;;;;6328439;27;20897;-74
2023/11/30 05:34:57;;;;;;;25.55;18.25;;;;;;;;;;6341647;27;20039;-74
2023/11/30 05:37:59;;;;;;;24.40;16.60;;;;;;;;;;6366371;27;20128;-75
2023/11/30 05:41:01;;;;;;;17.85;14.15;;;;;;;;;;6345270;27;20047;-75
2023/11/30 05:44:03;;;;;;;25.25;12.65;;;;;;;;;;6324432;27;21172;-74
2023/11/30 05:47:05;;;;;;;37.55;26.73;;;;;;;;;;6329383;27;20039;-74
2023/11/30 05:50:09;;;;;;;29.00;20.65;;;;;;;;;;6326089;27;20055;-74
2023/11/30 05:53:11;;;;;;;25.77;18.30;;;;;;;;;;6348161;27;20039;-76
2023/11/30 05:56:13;;;;;;;54.53;31.35;;;;;;;;;;6335072;28;20059;-76
2023/11/30 05:59:15;;;;;;;48.28;31.60;;;;;;;;;;6321655;27;20047;-76
2023/11/30 06:02:18;;;;;;;47.55;31.88;;;;;;;;;;6342588;27;20070;-76
2023/11/30 06:05:20;;;;;;;22.95;16.27;;;;;;;;;;6341856;27;20513;-75
2023/11/30 06:08:27;;;;;;;76.60;36.22;;;;;;;;;;6355522;27;20047;-77
2023/11/30 06:11:31;;;;;;;53.50;33.88;;;;;;;;;;6358771;27;20128;-75
2023/11/30 06:14:33;;;;;;;26.25;16.65;;;;;;;;;;6339682;27;20720;-76
2023/11/30 06:17:36;;;;;;;25.63;19.00;;;;;;;;;;6317307;28;20047;-77
2023/11/30 06:20:39;;;;;;;66.25;33.88;;;;;;;;;;6342717;27;20058;-76
2023/11/30 06:23:41;;;;;;;29.13;17.50;;;;;;;;;;6338921;27;20587;-74
2023/11/30 06:26:43;;;;;;;40.35;23.70;;;;;;;;;;6343756;27;20088;-74
2023/11/30 06:29:45;;;;;;;25.83;20.48;;;;;;;;;;6339159;27;20039;-74
2023/11/30 06:32:48;;;;;;;26.00;15.77;;;;;;;;;;6318457;27;20089;-75
2023/11/30 06:35:56;;;;;;;32.30;17.30;;;;;;;;;;6358710;27;20055;-76
2023/11/30 06:38:59;;;;;;;22.92;11.20;;;;;;;;;;6356194;27;20060;-80
2023/11/30 06:42:02;;;;;;;25.65;15.32;;;;;;;;;;6324918;27;20043;-76
2023/11/30 06:45:05;;;;;;;27.63;16.30;;;;;;;;;;6340357;27;20061;-76
2023/11/30 06:48:07;;;;;;;41.92;18.63;;;;;;;;;;6301813;27;20835;-74
2023/11/30 06:51:09;;;;;;;56.15;21.27;;;;;;;;;;6352405;27;20059;-74
2023/11/30 06:54:12;;;;;;;78.03;30.10;;;;;;;;;;6341314;27;20039;-76
2023/11/30 06:57:15;;;;;;;48.58;22.48;;;;;;;;;;6356835;27;20050;-76
2023/11/30 07:00:18;;;;;;;45.22;21.52;;;;;;;;;;6323510;27;20043;-75
2023/11/30 07:03:20;;;;;;;37.75;19.35;;;;;;;;;;6357859;27;20080;-75
2023/11/30 07:06:25;;;;;;;38.35;24.92;;;;;;;;;;6360784;27;20043;-76
2023/11/30 07:09:28;;;;;;;37.67;20.15;;;;;;;;;;6356600;27;20059;-75
2023/11/30 07:12:30;;;;;;;94.32;53.13;;;;;;;;;;6339600;28;20074;-73
2023/11/30 07:15:32;;;;;;;44.55;21.85;;;;;;;;;;6339384;28;20047;-75
2023/11/30 07:18:34;;;;;;;36.53;19.42;;;;;;;;;;6324858;28;20873;-74
2023/11/30 07:21:37;;;;;;;81.88;45.25;;;;;;;;;;6342843;28;20081;-74
2023/11/30 07:24:39;;;;;;;60.45;24.15;;;;;;;;;;6343585;28;20046;-76
2023/11/30 07:27:42;;;;;;;50.42;22.65;;;;;;;;;;6328944;28;20577;-75
2023/11/30 07:30:44;;;;;;;35.88;20.27;;;;;;;;;;6368384;28;20429;-76
2023/11/30 07:33:47;;;;;;;31.25;20.00;;;;;;;;;;6326783;28;20531;-76
2023/11/30 07:36:50;;;;;;;52.13;23.15;;;;;;;;;;6340926;28;20133;-76
2023/11/30 07:39:53;;;;;;;38.42;20.52;;;;;;;;;;6360384;27;20050;-76
2023/11/30 07:42:56;;;;;;;32.60;16.33;;;;;;;;;;6349829;27;20823;-76
2023/11/30 07:45:59;;;;;;;36.55;18.75;;;;;;;;;;6345704;27;20051;-76
2023/11/30 07:49:01;;;;;;;50.75;20.10;;;;;;;;;;6344547;27;20071;-77
2023/11/30 07:52:03;;;;;;;41.63;23.30;;;;;;;;;;6356701;27;20046;-77
2023/11/30 07:55:07;;;;;;;62.60;22.35;;;;;;;;;;6358939;27;20119;-76
2023/11/30 07:58:10;;;;;;;114.95;27.13;;;;;;;;;;6340330;27;20116;-77
2023/11/30 08:01:12;;;;;;;185.73;29.58;;;;;;;;;;6301783;27;20058;-76
2023/11/30 08:04:14;;;;;;;49.58;22.23;;;;;;;;;;6336932;27;20031;-74
2023/11/30 08:07:16;;;;;;;53.22;21.30;;;;;;;;;;6342858;27;20139;-75
2023/11/30 08:10:19;;;;;;;236.55;38.50;;;;;;;;;;6351772;27;20115;-74
2023/11/30 08:13:22;;;;;;;99.45;24.73;;;;;;;;;;6330107;27;20052;-75
2023/11/30 08:16:26;;;;;;;92.97;24.08;;;;;;;;;;6344567;27;20054;-76
2023/11/30 08:19:28;;;;;;;47.40;21.27;;;;;;;;;;6362933;27;20047;-74
2023/11/30 08:22:31;;;;;;;31.17;17.67;;;;;;;;;;6352599;27;20540;-76
2023/11/30 08:25:33;;;;;;;30.35;20.65;;;;;;;;;;6340388;27;20047;-76
2023/11/30 08:28:35;;;;;;;30.75;16.52;;;;;;;;;;6345364;27;20054;-77
2023/11/30 08:31:37;;;;;;;33.22;20.60;;;;;;;;;;6385892;27;20143;-77
2023/11/30 08:34:40;;;;;;;29.83;17.88;;;;;;;;;;6377213;27;20041;-76
2023/11/30 08:37:42;;;;;;;35.13;16.65;;;;;;;;;;6324993;27;20058;-76
2023/11/30 08:40:44;;;;;;;31.55;17.83;;;;;;;;;;6337327;27;20118;-77
2023/11/30 08:43:48;;;;;;;27.40;15.77;;;;;;;;;;6335789;27;20027;-76
2023/11/30 08:46:52;;;;;;;27.38;17.80;;;;;;;;;;6356398;27;20035;-76
2023/11/30 08:49:54;;;;;;;27.10;19.55;;;;;;;;;;6364595;27;20069;-76
2023/11/30 08:52:56;;;;;;;23.58;15.32;;;;;;;;;;6361649;27;20525;-76
2023/11/30 08:55:58;;;;;;;25.70;17.63;;;;;;;;;;6327855;27;20054;-76
2023/11/30 08:59:00;;;;;;;24.15;16.77;;;;;;;;;;6342929;27;20121;-76
2023/11/30 09:02:05;;;;;;;15.15;13.23;;;;;;;;;;6333390;27;20039;-78
2023/11/30 09:05:12;;;;;;;20.85;15.60;;;;;;;;;;6330499;27;20126;-77
2023/11/30 09:08:14;;;;;;;28.40;18.40;;;;;;;;;;6364599;27;20179;-74
2023/11/30 09:32:12;;;;;;;24.58;11.95;;;;;;;;;;6287272;22;1528600;-78
2023/11/30 09:35:15;;;;;;;19.58;11.93;;;;;;;;;;6233632;28;20459;-73
2023/11/30 09:38:18;;;;;;;20.55;10.55;;;;;;;;;;6241838;28;20875;-76
2023/11/30 09:41:22;;;;;;;18.10;11.98;;;;;;;;;;6225654;28;20033;-75
2023/11/30 09:44:24;;;;;;;22.58;11.60;;;;;;;;;;6237356;28;20056;-76
2023/11/30 09:47:27;;;;;;;23.77;13.50;;;;;;;;;;6229368;28;20081;-75
2023/11/30 09:50:30;;;;;;;20.42;12.48;;;;;;;;;;6247022;28;20037;-76
2023/11/30 09:53:33;;;;;;;16.75;10.57;;;;;;;;;;6228406;28;20082;-76
2023/11/30 09:56:35;;;;;;;15.32;11.82;;;;;;;;;;6238739;28;20037;-76
2023/11/30 09:59:38;;;;;;;16.23;10.65;;;;;;;;;;6212757;28;20052;-76
2023/11/30 10:02:53;;;;;;;23.40;15.10;;;;;;;;;;6249975;28;20057;-76
2023/11/30 10:05:55;;;;;;;18.02;11.88;;;;;;;;;;6202486;28;20142;-76
2023/11/30 10:09:01;;;;;;;21.50;15.98;;;;;;;;;;6226612;28;20592;-76
2023/11/30 10:12:05;;;;;;;17.95;11.65;;;;;;;;;;6248562;28;20577;-76
2023/11/30 10:15:09;;;;;;;22.15;13.25;;;;;;;;;;6239213;28;20045;-76
2023/11/30 10:18:12;;;;;;;15.13;10.52;;;;;;;;;;6223237;28;20045;-77
2023/11/30 10:21:14;;;;;;;14.82;10.20;;;;;;;;;;6275719;28;20037;-76
2023/11/30 10:24:17;;;;;;;12.00;8.32;;;;;;;;;;6243120;28;20127;-76
2023/11/30 10:27:21;;;;;;;19.00;11.48;;;;;;;;;;6229264;28;20503;-76
2023/11/30 10:30:25;;;;;;;16.00;12.57;;;;;;;;;;6222201;28;20045;-75
2023/11/30 10:33:28;;;;;;;16.67;9.77;;;;;;;;;;6239010;28;20057;-74
2023/11/30 10:36:32;;;;;;;19.75;12.07;;;;;;;;;;6223234;28;20076;-75
2023/11/30 10:39:36;;;;;;;8.38;6.45;;;;;;;;;;6245414;28;20473;-75
2023/11/30 10:42:45;;;;;;;17.30;10.75;;;;;;;;;;6202384;28;20053;-77
2023/11/30 10:45:48;;;;;;;13.77;9.52;;;;;;;;;;6214234;28;20073;-76
2023/11/30 10:48:52;;;;;;;18.92;11.68;;;;;;;;;;6216295;28;20042;-76
2023/11/30 10:52:01;;;;;;;17.17;11.38;;;;;;;;;;6215231;28;20049;-76
2023/11/30 10:55:09;;;;;;;14.25;10.77;;;;;;;;;;6237807;28;20057;-76
2023/11/30 10:58:11;;;;;;;14.10;9.88;;;;;;;;;;6210986;28;20042;-77
2023/11/30 11:01:13;;;;;;;14.95;10.60;;;;;;;;;;6198168;28;20140;-77
2023/11/30 11:04:16;;;;;;;17.63;11.43;;;;;;;;;;6214629;28;20054;-76
2023/11/30 11:07:18;;;;;;;15.63;10.57;;;;;;;;;;6205270;28;20041;-76
2023/11/30 11:10:24;;;;;;;14.90;9.38;;;;;;;;;;6236906;28;20522;-75
2023/11/30 11:13:28;;;;;;;11.63;9.40;;;;;;;;;;6212950;28;20578;-75
2023/11/30 11:16:35;;;;;;;17.27;11.10;;;;;;;;;;6197414;28;20080;-75
2023/11/30 11:19:42;;;;;;;22.80;13.45;;;;;;;;;;6223314;28;20046;-76
2023/11/30 11:22:45;;;;;;;23.35;13.43;;;;;;;;;;6238977;28;20049;-75
2023/11/30 11:25:48;;;;;;;15.75;11.15;;;;;;;;;;6226327;28;20885;-76
2023/11/30 11:28:49;;;;;;;20.17;13.38;;;;;;;;;;6212733;28;20052;-76
2023/11/30 11:31:53;;;;;;;23.50;14.52;;;;;;;;;;6218733;28;20103;-76
2023/11/30 11:34:55;;;;;;;15.88;9.90;;;;;;;;;;6197731;28;20073;-77
2023/11/30 11:37:58;;;;;;;18.17;13.43;;;;;;;;;;6236498;28;20052;-74
2023/11/30 11:41:02;;;;;;;16.63;12.13;;;;;;;;;;6219027;28;20041;-77
2023/11/30 11:44:04;;;;;;;27.08;14.23;;;;;;;;;;6225885;28;20053;-76
2023/11/30 11:47:07;;;;;;;18.80;13.30;;;;;;;;;;6226477;28;20088;-76
2023/11/30 11:50:12;;;;;;;19.38;12.45;;;;;;;;;;6207056;28;20508;-76
2023/11/30 11:53:14;;;;;;;23.00;13.82;;;;;;;;;;6222612;28;20114;-75
2023/11/30 11:56:18;;;;;;;19.42;12.68;;;;;;;;;;6228715;28;20045;-75
2023/11/30 11:59:21;;;;;;;18.27;12.77;;;;;;;;;;6214299;28;20045;-75
2023/11/30 12:02:23;;;;;;;19.30;14.07;;;;;;;;;;6203865;28;20033;-75
2023/11/30 12:05:25;;;;;;;16.73;11.57;;;;;;;;;;6200595;28;20040;-74
2023/11/30 12:08:34;;;;;;;19.75;12.65;;;;;;;;;;6233921;28;20187;-74
2023/11/30 12:11:37;;;;;;;17.20;12.25;;;;;;;;;;6222277;28;20840;-75
2023/11/30 12:14:39;;;;;;;15.48;10.68;;;;;;;;;;6212501;28;20544;-75
2023/11/30 12:17:41;;;;;;;22.88;14.57;;;;;;;;;;6235411;28;20048;-74
2023/11/30 12:20:43;;;;;;;18.58;12.52;;;;;;;;;;6209995;28;20050;-74
2023/11/30 12:23:49;;;;;;;20.65;13.68;;;;;;;;;;6236180;28;20184;-75
2023/11/30 12:26:52;;;;;;;22.67;12.82;;;;;;;;;;6220274;28;20041;-76
2023/11/30 12:29:54;;;;;;;22.95;14.02;;;;;;;;;;6236665;28;20041;-77
2023/11/30 12:32:57;;;;;;;22.15;13.93;;;;;;;;;;6193817;28;20136;-75
2023/11/30 12:36:00;;;;;;;23.90;16.05;;;;;;;;;;6229031;28;20041;-76
2023/11/30 12:39:03;;;;;;;23.42;16.80;;;;;;;;;;6227793;28;20039;-76
2023/11/30 12:42:05;;;;;;;18.42;13.15;;;;;;;;;;6229723;28;20054;-76
2023/11/30 12:45:08;;;;;;;25.33;15.90;;;;;;;;;;6192576;28;20054;-77
2023/11/30 12:48:11;;;;;;;23.17;16.50;;;;;;;;;;6219738;28;20053;-77
2023/11/30 12:51:15;;;;;;;18.05;13.05;;;;;;;;;;6239147;28;20076;-76
2023/11/30 12:54:17;;;;;;;22.42;14.23;;;;;;;;;;6212222;28;20041;-74
2023/11/30 12:57:20;;;;;;;22.50;14.57;;;;;;;;;;6208058;28;20057;-75
2023/11/30 13:00:23;;;;;;;24.33;13.90;;;;;;;;;;6225860;28;20038;-75
2023/11/30 13:03:26;;;;;;;27.40;17.83;;;;;;;;;;6222153;28;20042;-76
2023/11/30 13:06:29;;;;;;;18.05;11.70;;;;;;;;;;6211488;28;20786;-75
2023/11/30 13:09:32;;;;;;;19.52;12.18;;;;;;;;;;6217892;28;20057;-75
2023/11/30 13:12:35;;;;;;;19.98;14.43;;;;;;;;;;6226621;28;20037;-76
2023/11/30 13:15:38;;;;;;;20.48;14.75;;;;;;;;;;6228714;28;20056;-76
2023/11/30 13:18:40;;;;;;;26.80;16.08;;;;;;;;;;6223207;28;20080;-77
2023/11/30 13:21:43;;;;;;;23.17;13.45;;;;;;;;;;6222408;28;20820;-77
2023/11/30 13:24:45;;;;;;;19.17;12.93;;;;;;;;;;6210876;28;20069;-77
2023/11/30 13:27:47;;;;;;;20.13;13.50;;;;;;;;;;6247858;28;20108;-77
2023/11/30 13:30:49;;;;;;;25.08;15.50;;;;;;;;;;6212520;28;20108;-77
2023/11/30 13:33:52;;;;;;;26.30;15.95;;;;;;;;;;6234094;28;20048;-79
2023/11/30 13:36:56;;;;;;;48.63;24.45;;;;;;;;;;6227928;28;20045;-78
2023/11/30 13:39:59;;;;;;;29.70;17.70;;;;;;;;;;6254538;28;20053;-78
2023/11/30 13:43:02;;;;;;;33.55;20.77;;;;;;;;;;6232485;28;20038;-78
2023/11/30 13:46:12;;;;;;;34.05;18.88;;;;;;;;;;6256376;28;20042;-78
2023/11/30 13:49:17;;;;;;;25.45;17.05;;;;;;;;;;6256118;28;20081;-79
2023/11/30 13:52:21;;;;;;;29.30;16.60;;;;;;;;;;6233356;28;20084;-77
2023/11/30 13:55:24;;;;;;;31.67;20.08;;;;;;;;;;6228781;28;20357;-78
2023/11/30 13:58:28;;;;;;;32.10;19.23;;;;;;;;;;6236274;28;20064;-79
2023/11/30 14:01:32;;;;;;;30.23;18.40;;;;;;;;;;6257146;28;20139;-79
2023/11/30 14:04:37;;;;;;;35.78;23.23;;;;;;;;;;6259439;28;20068;-78
2023/11/30 14:07:41;;;;;;;30.60;18.95;;;;;;;;;;6232809;28;20769;-79
2023/11/30 14:10:43;;;;;;;43.83;25.77;;;;;;;;;;6215978;28;20049;-76
2023/11/30 14:13:46;;;;;;;29.85;19.27;;;;;;;;;;6230957;28;20064;-78
2023/11/30 14:16:49;;;;;;;29.40;20.15;;;;;;;;;;6233596;28;20771;-78
2023/11/30 14:19:51;;;;;;;26.92;19.63;;;;;;;;;;6217167;28;20045;-78
2023/11/30 14:22:53;;;;;;;23.25;14.45;;;;;;;;;;6203943;28;20802;-77
2023/11/30 14:25:56;;;;;;;35.95;24.33;;;;;;;;;;6202170;28;20033;-77
2023/11/30 14:28:58;;;;;;;35.85;22.33;;;;;;;;;;6194867;28;20046;-77
2023/11/30 14:32:00;;;;;;;36.60;20.63;;;;;;;;;;6211091;28;20136;-77
2023/11/30 14:35:11;;;;;;;30.67;19.80;;;;;;;;;;6199729;28;20056;-78
2023/11/30 14:38:14;;;;;;;34.38;23.02;;;;;;;;;;6199884;28;20052;-75
2023/11/30 14:41:16;;;;;;;39.25;24.90;;;;;;;;;;6223565;28;20050;-76
2023/11/30 14:44:18;;;;;;;73.43;31.58;;;;;;;;;;6219598;28;20053;-78
2023/11/30 14:47:25;;;;;;;52.47;26.85;;;;;;;;;;6225763;28;20046;-77
2023/11/30 14:50:28;;;;;;;51.03;25.42;;;;;;;;;;6240915;28;20056;-77
2023/11/30 14:53:30;;;;;;;39.90;24.80;;;;;;;;;;6228071;28;20049;-76
2023/11/30 14:56:36;;;;;;;39.17;23.52;;;;;;;;;;6221063;28;20057;-75
2023/11/30 14:59:39;;;;;;;35.72;19.65;;;;;;;;;;6229628;28;20442;-75
2023/11/30 15:02:41;;;;;;;37.13;23.83;;;;;;;;;;6241113;28;20057;-74
2023/11/30 15:05:46;;;;;;;34.65;20.73;;;;;;;;;;6216499;28;20045;-73
2023/11/30 15:08:49;;;;;;;31.67;19.70;;;;;;;;;;6210152;28;20236;-75
2023/11/30 15:11:53;;;;;;;40.08;23.20;;;;;;;;;;6235389;28;20042;-74
2023/11/30 15:14:55;;;;;;;47.78;25.67;;;;;;;;;;6221210;28;20048;-73
2023/11/30 15:17:58;;;;;;;35.97;20.02;;;;;;;;;;6218030;28;20065;-75
2023/11/30 15:21:01;;;;;;;61.55;34.25;;;;;;;;;;6238625;28;20098;-74
2023/11/30 15:24:04;;;;;;;54.72;31.60;;;;;;;;;;6215035;28;20200;-74
2023/11/30 15:27:06;;;;;;;54.42;31.40;;;;;;;;;;6230908;28;20533;-74
2023/11/30 15:30:10;;;;;;;50.42;29.92;;;;;;;;;;6218461;28;20046;-73
2023/11/30 15:33:13;;;;;;;58.92;35.05;;;;;;;;;;6238957;28;20180;-75
2023/11/30 15:36:15;;;;;;;51.13;33.95;;;;;;;;;;6242413;28;20060;-75
2023/11/30 15:39:23;;;;;;;46.30;30.92;;;;;;;;;;6233797;28;20049;-75
2023/11/30 15:42:27;;;;;;;61.20;34.38;;;;;;;;;;6246028;28;20061;-74
2023/11/30 15:45:30;;;;;;;62.95;38.90;;;;;;;;;;6235983;28;20076;-76
2023/11/30 15:48:33;;;;;;;82.82;51.28;;;;;;;;;;6244920;28;20041;-74
2023/11/30 15:51:38;;;;;;;118.60;67.93;;;;;;;;;;6256126;28;20030;-75
2023/11/30 15:54:40;;;;;;;;;;;;;;;;;;6232957;28;20044;-77
2023/11/30 15:57:44;;;;;;;97.60;53.78;;;;;;;;;;6202902;28;19925;-76
2023/11/30 16:00:47;;;;;;;91.97;48.50;;;;;;;;;;6229247;28;20059;-76
2023/11/30 16:03:50;;;;;;;81.85;43.75;;;;;;;;;;6216263;28;20042;-76
2023/11/30 16:06:53;;;;;;;96.03;53.63;;;;;;;;;;6229754;28;20037;-76
2023/11/30 16:09:55;;;;;;;213.48;111.30;;;;;;;;;;6221671;28;20045;-76
2023/11/30 16:12:58;;;;;;;129.25;68.53;;;;;;;;;;6219814;28;20068;-75
2023/11/30 16:16:04;;;;;;;123.30;66.93;;;;;;;;;;6228828;28;20771;-77
2023/11/30 16:19:06;;;;;;;104.85;57.17;;;;;;;;;;6192075;28;20050;-76
2023/11/30 16:22:10;;;;;;;113.97;60.60;;;;;;;;;;6217676;28;20530;-77
2023/11/30 16:25:12;;;;;;;70.57;42.28;;;;;;;;;;6215324;28;20518;-76
2023/11/30 16:28:15;;;;;;;64.45;37.00;;;;;;;;;;6215497;28;20752;-75
2023/11/30 16:31:17;;;;;;;47.05;27.00;;;;;;;;;;6233687;28;20144;-75
2023/11/30 16:34:20;;;;;;;58.35;35.63;;;;;;;;;;6225432;28;20049;-75
2023/11/30 16:37:24;;;;;;;42.90;25.00;;;;;;;;;;6228632;28;20054;-75
2023/11/30 16:40:26;;;;;;;53.22;31.00;;;;;;;;;;6226552;28;20511;-76
2023/11/30 16:43:31;;;;;;;47.17;29.63;;;;;;;;;;6220384;28;20573;-76
2023/11/30 16:46:33;;;;;;;37.25;21.55;;;;;;;;;;6229423;28;20102;-77
2023/11/30 16:49:36;;;;;;;46.75;27.55;;;;;;;;;;6201576;28;20473;-76
2023/11/30 16:52:39;;;;;;;49.60;29.88;;;;;;;;;;6223974;28;20103;-76
2023/11/30 16:55:42;;;;;;;49.08;27.90;;;;;;;;;;6227235;28;20046;-75
2023/11/30 16:58:44;;;;;;;45.83;25.38;;;;;;;;;;6209082;28;20045;-75
2023/11/30 17:01:48;;;;;;;40.85;23.40;;;;;;;;;;6216192;28;20758;-75
2023/11/30 17:04:50;;;;;;;39.63;23.65;;;;;;;;;;6234634;28;20053;-75
2023/11/30 17:07:52;;;;;;;32.05;17.95;;;;;;;;;;6234214;28;20029;-75
2023/11/30 17:10:55;;;;;;;28.42;15.90;;;;;;;;;;6221697;28;20041;-76
2023/11/30 17:13:58;;;;;;;30.67;16.20;;;;;;;;;;6197592;28;20603;-75
2023/11/30 17:17:00;;;;;;;27.40;15.10;;;;;;;;;;6202187;28;20060;-76
2023/11/30 17:20:04;;;;;;;23.17;13.77;;;;;;;;;;6225574;28;20038;-74
2023/11/30 17:23:06;;;;;;;16.85;10.80;;;;;;;;;;6224267;28;20081;-75
2023/11/30 17:26:09;;;;;;;15.10;9.98;;;;;;;;;;6231075;28;20046;-75
2023/11/30 17:29:12;;;;;;;14.60;9.25;;;;;;;;;;6200721;28;20581;-76
2023/11/30 17:32:17;;;;;;;12.65;7.78;;;;;;;;;;6229101;28;20045;-76
2023/11/30 17:35:19;;;;;;;11.75;7.70;;;;;;;;;;6211594;28;20045;-73
2023/11/30 17:38:22;;;;;;;10.35;6.35;;;;;;;;;;6233081;28;20045;-73
2023/11/30 17:41:25;;;;;;;12.45;8.50;;;;;;;;;;6219533;28;20041;-73
2023/11/30 17:44:27;;;;;;;18.00;9.27;;;;;;;;;;6212474;28;20130;-72
2023/11/30 17:47:29;;;;;;;11.13;6.15;;;;;;;;;;6222266;28;20094;-72
2023/11/30 17:50:31;;;;;;;9.93;6.00;;;;;;;;;;6190025;28;20455;-73
2023/11/30 17:53:34;;;;;;;10.35;6.72;;;;;;;;;;6220194;28;20549;-73
2023/11/30 17:56:36;;;;;;;14.45;6.47;;;;;;;;;;6224745;28;20049;-73
2023/11/30 17:59:38;;;;;;;8.43;6.43;;;;;;;;;;6234935;28;20047;-72
2023/11/30 18:02:40;;;;;;;10.13;7.63;;;;;;;;;;6233980;28;20044;-72
2023/11/30 18:05:42;;;;;;;8.65;6.68;;;;;;;;;;6229489;28;20127;-74